Terminal Aerodrome Forecast
Issued by NWS Charleston, WV

Current Version | Previous Version | Graphics & Text | Print | Product List | Glossary On
Versions: 1 2 3 4 5 6 7 8 9 10 11 12 13 14 15 16 17 18 19 20 21 22 23 24 25 26 27 28
000
FTUS41 KRLX 010857 AAB
TAFHTS
TAF AMD
KHTS 010857Z 0109/0206 35004KT P6SM OVC012
      TEMPO 0112/0114 5SM -SHRA BR
     FM011400 02005KT 5SM -SHRA BR OVC015
     FM011900 02004KT 3SM SHRA BR OVC020
     FM020300 VRB03KT 4SM BR OVC015=

USA.gov is the U.S. government's official web portal to all federal, state and local government web resources and services.